sensor_id;sensor_type;location;lat;lon;timestamp;P1;durP1;ratioP1;P2;durP2;ratioP2
17424;SDS011;8830;50.978;5.058;2023-04-30T00:01:27;6.30;;;5.10;;
17424;SDS011;8830;50.978;5.058;2023-04-30T00:03:54;6.77;;;5.37;;
17424;SDS011;8830;50.978;5.058;2023-04-30T00:06:22;5.93;;;5.47;;
17424;SDS011;8830;50.978;5.058;2023-04-30T00:08:50;8.23;;;5.50;;
17424;SDS011;8830;50.978;5.058;2023-04-30T00:11:17;6.30;;;5.70;;
17424;SDS011;8830;50.978;5.058;2023-04-30T00:13:45;8.10;;;5.13;;
17424;SDS011;8830;50.978;5.058;2023-04-30T00:16:12;8.20;;;5.67;;
17424;SDS011;8830;50.978;5.058;2023-04-30T00:18:39;6.27;;;5.37;;
17424;SDS011;8830;50.978;5.058;2023-04-30T00:21:06;7.07;;;5.67;;
17424;SDS011;8830;50.978;5.058;2023-04-30T00:23:35;6.57;;;5.70;;
17424;SDS011;8830;50.978;5.058;2023-04-30T00:26:02;6.03;;;5.43;;
17424;SDS011;8830;50.978;5.058;2023-04-30T00:28:29;7.90;;;5.70;;
17424;SDS011;8830;50.978;5.058;2023-04-30T00:30:56;9.13;;;6.13;;
17424;SDS011;8830;50.978;5.058;2023-04-30T00:33:23;6.60;;;5.90;;
17424;SDS011;8830;50.978;5.058;2023-04-30T00:35:50;6.30;;;5.80;;
17424;SDS011;8830;50.978;5.058;2023-04-30T00:38:17;6.50;;;5.77;;
17424;SDS011;8830;50.978;5.058;2023-04-30T00:40:46;6.23;;;5.47;;
17424;SDS011;8830;50.978;5.058;2023-04-30T00:43:14;6.20;;;5.50;;
17424;SDS011;8830;50.978;5.058;2023-04-30T00:45:41;6.17;;;5.57;;
17424;SDS011;8830;50.978;5.058;2023-04-30T00:48:08;6.07;;;5.57;;
17424;SDS011;8830;50.978;5.058;2023-04-30T00:50:35;5.77;;;5.17;;
17424;SDS011;8830;50.978;5.058;2023-04-30T00:53:03;7.43;;;5.40;;
17424;SDS011;8830;50.978;5.058;2023-04-30T00:55:32;5.53;;;5.03;;
17424;SDS011;8830;50.978;5.058;2023-04-30T00:58:01;7.73;;;5.60;;
17424;SDS011;8830;50.978;5.058;2023-04-30T01:00:29;8.87;;;5.40;;
17424;SDS011;8830;50.978;5.058;2023-04-30T01:02:57;6.20;;;5.70;;
17424;SDS011;8830;50.978;5.058;2023-04-30T01:05:24;6.60;;;5.90;;
17424;SDS011;8830;50.978;5.058;2023-04-30T01:07:51;6.33;;;5.73;;
17424;SDS011;8830;50.978;5.058;2023-04-30T01:10:21;5.77;;;5.23;;
17424;SDS011;8830;50.978;5.058;2023-04-30T01:12:55;7.43;;;5.90;;
17424;SDS011;8830;50.978;5.058;2023-04-30T01:15:34;6.27;;;5.77;;
17424;SDS011;8830;50.978;5.058;2023-04-30T01:18:08;6.40;;;5.80;;
17424;SDS011;8830;50.978;5.058;2023-04-30T01:20:40;7.33;;;6.37;;
17424;SDS011;8830;50.978;5.058;2023-04-30T01:23:14;6.33;;;5.67;;
17424;SDS011;8830;50.978;5.058;2023-04-30T01:25:58;6.90;;;6.30;;
17424;SDS011;8830;50.978;5.058;2023-04-30T01:28:35;6.33;;;5.83;;
17424;SDS011;8830;50.978;5.058;2023-04-30T01:31:10;6.90;;;6.10;;
17424;SDS011;8830;50.978;5.058;2023-04-30T01:33:38;7.70;;;6.53;;
17424;SDS011;8830;50.978;5.058;2023-04-30T01:36:12;7.97;;;6.63;;
17424;SDS011;8830;50.978;5.058;2023-04-30T01:39:01;6.90;;;6.27;;
17424;SDS011;8830;50.978;5.058;2023-04-30T01:41:38;7.63;;;6.80;;
17424;SDS011;8830;50.978;5.058;2023-04-30T01:44:15;7.97;;;6.83;;
17424;SDS011;8830;50.978;5.058;2023-04-30T01:46:55;7.00;;;6.40;;
17424;SDS011;8830;50.978;5.058;2023-04-30T01:49:31;7.80;;;7.20;;
17424;SDS011;8830;50.978;5.058;2023-04-30T01:52:08;7.60;;;6.90;;
17424;SDS011;8830;50.978;5.058;2023-04-30T01:54:42;8.23;;;7.43;;
17424;SDS011;8830;50.978;5.058;2023-04-30T01:57:15;8.23;;;7.10;;
17424;SDS011;8830;50.978;5.058;2023-04-30T01:59:48;7.60;;;6.90;;
17424;SDS011;8830;50.978;5.058;2023-04-30T02:02:17;7.80;;;7.20;;
17424;SDS011;8830;50.978;5.058;2023-04-30T02:04:44;10.30;;;7.60;;
17424;SDS011;8830;50.978;5.058;2023-04-30T02:07:11;8.90;;;8.13;;
17424;SDS011;8830;50.978;5.058;2023-04-30T02:09:39;8.97;;;8.17;;
17424;SDS011;8830;50.978;5.058;2023-04-30T02:12:07;10.97;;;7.87;;
17424;SDS011;8830;50.978;5.058;2023-04-30T02:14:34;9.43;;;7.73;;
17424;SDS011;8830;50.978;5.058;2023-04-30T02:17:03;8.33;;;7.50;;
17424;SDS011;8830;50.978;5.058;2023-04-30T02:19:30;8.20;;;7.60;;
17424;SDS011;8830;50.978;5.058;2023-04-30T02:21:57;11.47;;;8.53;;
17424;SDS011;8830;50.978;5.058;2023-04-30T02:24:25;9.60;;;8.40;;
17424;SDS011;8830;50.978;5.058;2023-04-30T02:26:52;9.00;;;8.30;;
17424;SDS011;8830;50.978;5.058;2023-04-30T02:29:19;10.00;;;9.00;;
17424;SDS011;8830;50.978;5.058;2023-04-30T02:31:46;10.33;;;8.57;;
17424;SDS011;8830;50.978;5.058;2023-04-30T02:34:15;11.07;;;8.83;;
17424;SDS011;8830;50.978;5.058;2023-04-30T02:36:42;10.00;;;9.00;;
17424;SDS011;8830;50.978;5.058;2023-04-30T02:39:09;9.63;;;8.63;;
17424;SDS011;8830;50.978;5.058;2023-04-30T02:41:36;9.77;;;8.80;;
17424;SDS011;8830;50.978;5.058;2023-04-30T02:44:03;9.93;;;8.90;;
17424;SDS011;8830;50.978;5.058;2023-04-30T02:46:30;9.87;;;8.97;;
17424;SDS011;8830;50.978;5.058;2023-04-30T02:48:57;10.00;;;9.00;;
17424;SDS011;8830;50.978;5.058;2023-04-30T02:51:26;9.73;;;8.83;;
17424;SDS011;8830;50.978;5.058;2023-04-30T02:53:53;11.70;;;9.30;;
17424;SDS011;8830;50.978;5.058;2023-04-30T02:56:20;9.70;;;8.90;;
17424;SDS011;8830;50.978;5.058;2023-04-30T02:58:47;11.07;;;8.77;;
17424;SDS011;8830;50.978;5.058;2023-04-30T03:01:14;10.43;;;9.63;;
17424;SDS011;8830;50.978;5.058;2023-04-30T03:03:42;9.27;;;8.47;;
17424;SDS011;8830;50.978;5.058;2023-04-30T03:06:09;9.60;;;8.87;;
17424;SDS011;8830;50.978;5.058;2023-04-30T03:08:38;11.00;;;9.87;;
17424;SDS011;8830;50.978;5.058;2023-04-30T03:11:05;14.40;;;9.93;;
17424;SDS011;8830;50.978;5.058;2023-04-30T03:13:32;14.47;;;9.50;;
17424;SDS011;8830;50.978;5.058;2023-04-30T03:16:00;10.77;;;9.50;;
17424;SDS011;8830;50.978;5.058;2023-04-30T03:18:28;13.50;;;10.03;;
17424;SDS011;8830;50.978;5.058;2023-04-30T03:20:57;10.47;;;9.47;;
17424;SDS011;8830;50.978;5.058;2023-04-30T03:23:26;11.47;;;10.27;;
17424;SDS011;8830;50.978;5.058;2023-04-30T03:25:55;10.43;;;9.60;;
17424;SDS011;8830;50.978;5.058;2023-04-30T03:28:23;10.80;;;9.53;;
17424;SDS011;8830;50.978;5.058;2023-04-30T03:30:50;14.23;;;10.27;;
17424;SDS011;8830;50.978;5.058;2023-04-30T03:33:17;12.53;;;9.70;;
17424;SDS011;8830;50.978;5.058;2023-04-30T03:35:45;11.53;;;10.40;;
17424;SDS011;8830;50.978;5.058;2023-04-30T03:38:12;10.80;;;9.80;;
17424;SDS011;8830;50.978;5.058;2023-04-30T03:40:39;11.13;;;9.93;;
17424;SDS011;8830;50.978;5.058;2023-04-30T03:43:07;12.10;;;10.57;;
17424;SDS011;8830;50.978;5.058;2023-04-30T03:45:35;13.33;;;10.23;;
17424;SDS011;8830;50.978;5.058;2023-04-30T03:48:02;11.77;;;10.57;;
17424;SDS011;8830;50.978;5.058;2023-04-30T03:50:29;12.17;;;10.73;;
17424;SDS011;8830;50.978;5.058;2023-04-30T03:52:56;13.33;;;10.57;;
17424;SDS011;8830;50.978;5.058;2023-04-30T03:55:24;11.30;;;10.20;;
17424;SDS011;8830;50.978;5.058;2023-04-30T03:57:52;11.53;;;10.53;;
17424;SDS011;8830;50.978;5.058;2023-04-30T04:00:20;11.03;;;9.97;;
17424;SDS011;8830;50.978;5.058;2023-04-30T04:02:48;15.10;;;10.57;;
17424;SDS011;8830;50.978;5.058;2023-04-30T04:05:17;11.27;;;10.07;;
17424;SDS011;8830;50.978;5.058;2023-04-30T04:07:46;12.10;;;11.00;;
17424;SDS011;8830;50.978;5.058;2023-04-30T04:10:13;12.10;;;10.90;;
17424;SDS011;8830;50.978;5.058;2023-04-30T04:12:40;12.60;;;11.40;;
17424;SDS011;8830;50.978;5.058;2023-04-30T04:15:08;12.50;;;11.23;;
17424;SDS011;8830;50.978;5.058;2023-04-30T04:17:37;11.60;;;10.40;;
17424;SDS011;8830;50.978;5.058;2023-04-30T04:20:07;12.23;;;11.03;;
17424;SDS011;8830;50.978;5.058;2023-04-30T04:22:36;14.10;;;12.27;;
17424;SDS011;8830;50.978;5.058;2023-04-30T04:25:04;12.50;;;11.27;;
17424;SDS011;8830;50.978;5.058;2023-04-30T04:27:33;15.03;;;11.83;;
17424;SDS011;8830;50.978;5.058;2023-04-30T04:30:00;13.70;;;12.37;;
17424;SDS011;8830;50.978;5.058;2023-04-30T04:32:27;12.70;;;11.50;;
17424;SDS011;8830;50.978;5.058;2023-04-30T04:34:58;15.90;;;12.03;;
17424;SDS011;8830;50.978;5.058;2023-04-30T04:37:25;14.23;;;12.93;;
17424;SDS011;8830;50.978;5.058;2023-04-30T04:39:52;14.43;;;13.13;;
17424;SDS011;8830;50.978;5.058;2023-04-30T04:42:21;13.33;;;11.60;;
17424;SDS011;8830;50.978;5.058;2023-04-30T04:44:48;14.53;;;12.53;;
17424;SDS011;8830;50.978;5.058;2023-04-30T04:47:16;13.33;;;12.07;;
17424;SDS011;8830;50.978;5.058;2023-04-30T04:49:46;14.43;;;12.70;;
17424;SDS011;8830;50.978;5.058;2023-04-30T04:52:14;14.33;;;12.80;;
17424;SDS011;8830;50.978;5.058;2023-04-30T04:54:41;14.60;;;13.13;;
17424;SDS011;8830;50.978;5.058;2023-04-30T04:57:08;13.17;;;12.00;;
17424;SDS011;8830;50.978;5.058;2023-04-30T04:59:36;18.80;;;14.23;;
17424;SDS011;8830;50.978;5.058;2023-04-30T05:02:04;14.90;;;12.53;;
17424;SDS011;8830;50.978;5.058;2023-04-30T05:04:31;15.80;;;13.00;;
17424;SDS011;8830;50.978;5.058;2023-04-30T05:06:59;13.90;;;12.57;;
17424;SDS011;8830;50.978;5.058;2023-04-30T05:09:28;17.33;;;12.80;;
17424;SDS011;8830;50.978;5.058;2023-04-30T05:11:55;16.20;;;13.17;;
17424;SDS011;8830;50.978;5.058;2023-04-30T05:14:23;14.83;;;11.87;;
17424;SDS011;8830;50.978;5.058;2023-04-30T05:16:51;19.93;;;12.33;;
17424;SDS011;8830;50.978;5.058;2023-04-30T05:19:20;14.47;;;12.83;;
17424;SDS011;8830;50.978;5.058;2023-04-30T05:21:47;14.60;;;13.23;;
17424;SDS011;8830;50.978;5.058;2023-04-30T05:24:15;14.80;;;13.30;;
17424;SDS011;8830;50.978;5.058;2023-04-30T05:26:44;14.10;;;11.57;;
17424;SDS011;8830;50.978;5.058;2023-04-30T05:29:11;11.53;;;10.50;;
17424;SDS011;8830;50.978;5.058;2023-04-30T05:31:39;11.33;;;10.13;;
17424;SDS011;8830;50.978;5.058;2023-04-30T05:34:07;11.20;;;10.13;;
17424;SDS011;8830;50.978;5.058;2023-04-30T05:36:34;11.40;;;10.50;;
17424;SDS011;8830;50.978;5.058;2023-04-30T05:39:01;11.80;;;10.77;;
17424;SDS011;8830;50.978;5.058;2023-04-30T05:41:29;11.83;;;10.83;;
17424;SDS011;8830;50.978;5.058;2023-04-30T05:43:58;11.60;;;10.50;;
17424;SDS011;8830;50.978;5.058;2023-04-30T05:46:27;11.50;;;10.60;;
17424;SDS011;8830;50.978;5.058;2023-04-30T05:48:54;11.57;;;10.67;;
17424;SDS011;8830;50.978;5.058;2023-04-30T05:51:21;11.60;;;10.50;;
17424;SDS011;8830;50.978;5.058;2023-04-30T05:53:48;11.63;;;10.73;;
17424;SDS011;8830;50.978;5.058;2023-04-30T05:56:15;10.80;;;9.83;;
17424;SDS011;8830;50.978;5.058;2023-04-30T05:58:42;11.23;;;10.33;;
17424;SDS011;8830;50.978;5.058;2023-04-30T06:01:11;11.60;;;10.80;;
17424;SDS011;8830;50.978;5.058;2023-04-30T06:03:38;11.03;;;10.23;;
17424;SDS011;8830;50.978;5.058;2023-04-30T06:06:05;11.10;;;10.23;;
17424;SDS011;8830;50.978;5.058;2023-04-30T06:08:33;11.03;;;10.13;;
17424;SDS011;8830;50.978;5.058;2023-04-30T06:11:00;11.93;;;10.73;;
17424;SDS011;8830;50.978;5.058;2023-04-30T06:13:30;11.17;;;10.20;;
17424;SDS011;8830;50.978;5.058;2023-04-30T06:15:57;12.33;;;11.43;;
17424;SDS011;8830;50.978;5.058;2023-04-30T06:18:26;11.30;;;10.40;;
17424;SDS011;8830;50.978;5.058;2023-04-30T06:20:53;11.87;;;10.73;;
17424;SDS011;8830;50.978;5.058;2023-04-30T06:23:20;12.87;;;11.63;;
17424;SDS011;8830;50.978;5.058;2023-04-30T06:25:47;12.27;;;11.27;;
17424;SDS011;8830;50.978;5.058;2023-04-30T06:28:15;13.60;;;12.40;;
17424;SDS011;8830;50.978;5.058;2023-04-30T06:30:42;13.60;;;12.30;;
17424;SDS011;8830;50.978;5.058;2023-04-30T06:33:10;12.97;;;11.70;;
17424;SDS011;8830;50.978;5.058;2023-04-30T06:35:38;12.83;;;11.63;;
17424;SDS011;8830;50.978;5.058;2023-04-30T06:38:05;13.10;;;12.20;;
17424;SDS011;8830;50.978;5.058;2023-04-30T06:40:32;12.97;;;11.83;;
17424;SDS011;8830;50.978;5.058;2023-04-30T06:43:00;12.25;;;11.05;;
17424;SDS011;8830;50.978;5.058;2023-04-30T06:45:27;13.52;;;12.27;;
17424;SDS011;8830;50.978;5.058;2023-04-30T06:47:54;12.80;;;11.77;;
17424;SDS011;8830;50.978;5.058;2023-04-30T06:50:23;12.77;;;11.77;;
17424;SDS011;8830;50.978;5.058;2023-04-30T06:52:52;12.10;;;11.20;;
17424;SDS011;8830;50.978;5.058;2023-04-30T06:55:19;12.18;;;11.18;;
17424;SDS011;8830;50.978;5.058;2023-04-30T06:57:46;12.15;;;11.05;;
17424;SDS011;8830;50.978;5.058;2023-04-30T07:00:13;11.88;;;10.93;;
17424;SDS011;8830;50.978;5.058;2023-04-30T07:02:41;12.63;;;11.48;;
17424;SDS011;8830;50.978;5.058;2023-04-30T07:05:08;12.57;;;11.68;;
17424;SDS011;8830;50.978;5.058;2023-04-30T07:07:37;12.10;;;11.20;;
17424;SDS011;8830;50.978;5.058;2023-04-30T07:10:06;13.18;;;12.02;;
17424;SDS011;8830;50.978;5.058;2023-04-30T07:12:34;12.15;;;11.15;;
17424;SDS011;8830;50.978;5.058;2023-04-30T07:15:01;12.55;;;11.57;;
17424;SDS011;8830;50.978;5.058;2023-04-30T07:17:28;12.07;;;11.13;;
17424;SDS011;8830;50.978;5.058;2023-04-30T07:19:56;12.43;;;11.63;;
17424;SDS011;8830;50.978;5.058;2023-04-30T07:22:23;13.23;;;11.95;;
17424;SDS011;8830;50.978;5.058;2023-04-30T07:24:52;12.90;;;11.90;;
17424;SDS011;8830;50.978;5.058;2023-04-30T07:27:21;12.55;;;11.60;;
17424;SDS011;8830;50.978;5.058;2023-04-30T07:29:48;13.38;;;12.38;;
17424;SDS011;8830;50.978;5.058;2023-04-30T07:32:15;14.13;;;12.75;;
17424;SDS011;8830;50.978;5.058;2023-04-30T07:35:00;14.00;;;12.70;;
17424;SDS011;8830;50.978;5.058;2023-04-30T07:37:57;13.98;;;12.77;;
17424;SDS011;8830;50.978;5.058;2023-04-30T07:40:42;13.98;;;12.90;;
17424;SDS011;8830;50.978;5.058;2023-04-30T08:15:27;13.80;;;12.70;;
17424;SDS011;8830;50.978;5.058;2023-04-30T08:17:54;14.55;;;13.23;;
17424;SDS011;8830;50.978;5.058;2023-04-30T08:20:21;13.05;;;12.02;;
17424;SDS011;8830;50.978;5.058;2023-04-30T08:22:48;13.85;;;12.85;;
17424;SDS011;8830;50.978;5.058;2023-04-30T08:25:16;12.70;;;11.90;;
17424;SDS011;8830;50.978;5.058;2023-04-30T08:27:43;12.98;;;11.98;;
17424;SDS011;8830;50.978;5.058;2023-04-30T08:30:11;13.30;;;12.18;;
17424;SDS011;8830;50.978;5.058;2023-04-30T08:32:39;13.25;;;12.27;;
17424;SDS011;8830;50.978;5.058;2023-04-30T08:35:07;12.57;;;11.68;;
17424;SDS011;8830;50.978;5.058;2023-04-30T08:37:34;12.23;;;11.35;;
17424;SDS011;8830;50.978;5.058;2023-04-30T08:40:02;12.25;;;11.45;;
17424;SDS011;8830;50.978;5.058;2023-04-30T08:42:35;13.02;;;12.02;;
17424;SDS011;8830;50.978;5.058;2023-04-30T08:45:03;12.95;;;12.05;;
17424;SDS011;8830;50.978;5.058;2023-04-30T08:47:33;12.15;;;11.25;;
17424;SDS011;8830;50.978;5.058;2023-04-30T08:50:04;10.73;;;9.93;;
17424;SDS011;8830;50.978;5.058;2023-04-30T08:52:32;11.98;;;10.77;;
17424;SDS011;8830;50.978;5.058;2023-04-30T08:55:00;12.38;;;11.30;;
17424;SDS011;8830;50.978;5.058;2023-04-30T08:57:32;12.73;;;11.73;;
17424;SDS011;8830;50.978;5.058;2023-04-30T08:59:59;11.73;;;10.77;;
17424;SDS011;8830;50.978;5.058;2023-04-30T09:02:26;9.90;;;9.13;;
17424;SDS011;8830;50.978;5.058;2023-04-30T09:04:54;10.68;;;9.50;;
17424;SDS011;8830;50.978;5.058;2023-04-30T09:07:22;12.85;;;10.35;;
17424;SDS011;8830;50.978;5.058;2023-04-30T09:09:52;11.07;;;10.32;;
17424;SDS011;8830;50.978;5.058;2023-04-30T09:12:19;11.05;;;10.13;;
17424;SDS011;8830;50.978;5.058;2023-04-30T09:14:56;10.57;;;9.52;;
17424;SDS011;8830;50.978;5.058;2023-04-30T09:17:25;11.00;;;10.18;;
17424;SDS011;8830;50.978;5.058;2023-04-30T09:19:53;11.27;;;10.05;;
17424;SDS011;8830;50.978;5.058;2023-04-30T09:22:22;11.48;;;10.50;;
17424;SDS011;8830;50.978;5.058;2023-04-30T09:24:50;11.95;;;10.98;;
17424;SDS011;8830;50.978;5.058;2023-04-30T09:27:20;10.90;;;9.90;;
17424;SDS011;8830;50.978;5.058;2023-04-30T09:29:47;11.60;;;10.57;;
17424;SDS011;8830;50.978;5.058;2023-04-30T09:32:15;10.35;;;9.55;;
17424;SDS011;8830;50.978;5.058;2023-04-30T09:34:42;10.23;;;9.35;;
17424;SDS011;8830;50.978;5.058;2023-04-30T09:37:09;10.35;;;9.45;;
17424;SDS011;8830;50.978;5.058;2023-04-30T09:39:49;10.10;;;9.27;;
17424;SDS011;8830;50.978;5.058;2023-04-30T09:42:17;10.37;;;9.47;;
17424;SDS011;8830;50.978;5.058;2023-04-30T09:44:45;9.33;;;8.60;;
17424;SDS011;8830;50.978;5.058;2023-04-30T09:47:13;9.60;;;8.70;;
17424;SDS011;8830;50.978;5.058;2023-04-30T09:49:42;10.10;;;9.20;;
17424;SDS011;8830;50.978;5.058;2023-04-30T09:52:10;10.20;;;9.23;;
17424;SDS011;8830;50.978;5.058;2023-04-30T09:54:37;9.37;;;8.57;;
17424;SDS011;8830;50.978;5.058;2023-04-30T09:57:08;7.90;;;7.30;;
17424;SDS011;8830;50.978;5.058;2023-04-30T09:59:36;8.83;;;8.23;;
17424;SDS011;8830;50.978;5.058;2023-04-30T10:02:08;8.83;;;7.97;;
17424;SDS011;8830;50.978;5.058;2023-04-30T10:04:40;6.80;;;6.30;;
17424;SDS011;8830;50.978;5.058;2023-04-30T10:07:09;7.93;;;7.33;;
17424;SDS011;8830;50.978;5.058;2023-04-30T10:09:39;7.30;;;6.70;;
17424;SDS011;8830;50.978;5.058;2023-04-30T10:12:14;6.87;;;6.27;;
17424;SDS011;8830;50.978;5.058;2023-04-30T10:14:51;7.07;;;6.47;;
17424;SDS011;8830;50.978;5.058;2023-04-30T10:17:25;6.87;;;6.30;;
17424;SDS011;8830;50.978;5.058;2023-04-30T10:19:56;6.20;;;5.70;;
17424;SDS011;8830;50.978;5.058;2023-04-30T10:22:28;8.23;;;4.93;;
17424;SDS011;8830;50.978;5.058;2023-04-30T10:24:56;5.73;;;5.20;;
17424;SDS011;8830;50.978;5.058;2023-04-30T10:27:25;4.57;;;4.20;;
17424;SDS011;8830;50.978;5.058;2023-04-30T10:29:53;2.97;;;2.77;;
17424;SDS011;8830;50.978;5.058;2023-04-30T10:32:21;3.13;;;2.87;;
17424;SDS011;8830;50.978;5.058;2023-04-30T10:34:51;4.40;;;4.07;;
17424;SDS011;8830;50.978;5.058;2023-04-30T10:37:26;4.27;;;3.47;;
17424;SDS011;8830;50.978;5.058;2023-04-30T10:40:02;3.03;;;2.83;;
17424;SDS011;8830;50.978;5.058;2023-04-30T10:42:31;3.30;;;2.67;;
17424;SDS011;8830;50.978;5.058;2023-04-30T10:45:00;5.37;;;2.30;;
17424;SDS011;8830;50.978;5.058;2023-04-30T10:47:30;3.00;;;2.80;;
17424;SDS011;8830;50.978;5.058;2023-04-30T10:50:04;3.40;;;3.10;;
17424;SDS011;8830;50.978;5.058;2023-04-30T10:52:36;3.67;;;3.00;;
17424;SDS011;8830;50.978;5.058;2023-04-30T10:55:04;2.50;;;2.30;;
17424;SDS011;8830;50.978;5.058;2023-04-30T10:57:36;3.43;;;3.13;;
17424;SDS011;8830;50.978;5.058;2023-04-30T11:00:19;3.53;;;3.30;;
17424;SDS011;8830;50.978;5.058;2023-04-30T11:02:51;3.30;;;3.10;;
17424;SDS011;8830;50.978;5.058;2023-04-30T11:05:32;2.03;;;1.93;;
17424;SDS011;8830;50.978;5.058;2023-04-30T11:08:01;2.40;;;2.20;;
17424;SDS011;8830;50.978;5.058;2023-04-30T11:10:31;3.80;;;2.30;;
17424;SDS011;8830;50.978;5.058;2023-04-30T11:13:03;2.10;;;1.90;;
17424;SDS011;8830;50.978;5.058;2023-04-30T11:15:38;2.13;;;1.93;;
17424;SDS011;8830;50.978;5.058;2023-04-30T11:18:07;2.60;;;2.40;;
17424;SDS011;8830;50.978;5.058;2023-04-30T11:20:38;2.63;;;2.40;;
17424;SDS011;8830;50.978;5.058;2023-04-30T11:23:07;2.57;;;2.37;;
17424;SDS011;8830;50.978;5.058;2023-04-30T11:25:39;2.10;;;2.00;;
17424;SDS011;8830;50.978;5.058;2023-04-30T11:28:10;3.20;;;2.87;;
17424;SDS011;8830;50.978;5.058;2023-04-30T11:30:41;2.07;;;1.93;;
17424;SDS011;8830;50.978;5.058;2023-04-30T11:33:15;2.00;;;1.90;;
17424;SDS011;8830;50.978;5.058;2023-04-30T11:35:42;2.83;;;2.17;;
17424;SDS011;8830;50.978;5.058;2023-04-30T11:38:11;2.90;;;2.67;;
17424;SDS011;8830;50.978;5.058;2023-04-30T11:40:39;3.67;;;3.03;;
17424;SDS011;8830;50.978;5.058;2023-04-30T11:43:08;2.53;;;2.33;;
17424;SDS011;8830;50.978;5.058;2023-04-30T11:45:57;4.53;;;2.30;;
17424;SDS011;8830;50.978;5.058;2023-04-30T11:48:33;2.90;;;2.70;;
17424;SDS011;8830;50.978;5.058;2023-04-30T11:51:19;3.00;;;2.77;;
17424;SDS011;8830;50.978;5.058;2023-04-30T11:53:48;2.83;;;2.50;;
17424;SDS011;8830;50.978;5.058;2023-04-30T11:56:17;2.10;;;2.00;;
17424;SDS011;8830;50.978;5.058;2023-04-30T11:58:46;2.53;;;2.37;;
17424;SDS011;8830;50.978;5.058;2023-04-30T12:01:14;2.93;;;2.60;;
17424;SDS011;8830;50.978;5.058;2023-04-30T12:03:42;2.60;;;2.40;;
17424;SDS011;8830;50.978;5.058;2023-04-30T12:06:11;2.63;;;2.43;;
17424;SDS011;8830;50.978;5.058;2023-04-30T12:08:46;2.83;;;2.60;;
17424;SDS011;8830;50.978;5.058;2023-04-30T12:11:20;2.27;;;2.17;;
17424;SDS011;8830;50.978;5.058;2023-04-30T12:13:51;5.00;;;2.60;;
17424;SDS011;8830;50.978;5.058;2023-04-30T12:16:19;3.00;;;2.77;;
17424;SDS011;8830;50.978;5.058;2023-04-30T12:18:46;2.70;;;2.50;;
17424;SDS011;8830;50.978;5.058;2023-04-30T12:21:13;3.03;;;2.83;;
17424;SDS011;8830;50.978;5.058;2023-04-30T12:23:41;3.20;;;2.23;;
17424;SDS011;8830;50.978;5.058;2023-04-30T12:26:09;2.57;;;2.37;;
17424;SDS011;8830;50.978;5.058;2023-04-30T12:28:36;5.20;;;2.40;;
17424;SDS011;8830;50.978;5.058;2023-04-30T12:31:05;2.50;;;2.30;;
17424;SDS011;8830;50.978;5.058;2023-04-30T12:33:33;2.40;;;2.20;;
17424;SDS011;8830;50.978;5.058;2023-04-30T12:36:01;2.03;;;1.93;;
17424;SDS011;8830;50.978;5.058;2023-04-30T12:38:28;2.23;;;2.00;;
17424;SDS011;8830;50.978;5.058;2023-04-30T12:40:55;2.17;;;1.97;;
17424;SDS011;8830;50.978;5.058;2023-04-30T12:43:22;2.47;;;2.27;;
17424;SDS011;8830;50.978;5.058;2023-04-30T12:45:50;2.70;;;2.50;;
17424;SDS011;8830;50.978;5.058;2023-04-30T12:48:20;3.00;;;2.43;;
17424;SDS011;8830;50.978;5.058;2023-04-30T12:50:52;2.70;;;2.50;;
17424;SDS011;8830;50.978;5.058;2023-04-30T12:53:20;5.10;;;2.50;;
17424;SDS011;8830;50.978;5.058;2023-04-30T12:56:06;2.60;;;2.40;;
17424;SDS011;8830;50.978;5.058;2023-04-30T12:58:35;3.67;;;2.30;;
17424;SDS011;8830;50.978;5.058;2023-04-30T13:01:03;2.20;;;1.87;;
17424;SDS011;8830;50.978;5.058;2023-04-30T13:03:32;4.77;;;1.83;;
17424;SDS011;8830;50.978;5.058;2023-04-30T13:06:00;3.13;;;2.00;;
17424;SDS011;8830;50.978;5.058;2023-04-30T13:08:28;3.37;;;1.83;;
17424;SDS011;8830;50.978;5.058;2023-04-30T13:10:56;2.20;;;2.00;;
17424;SDS011;8830;50.978;5.058;2023-04-30T13:13:23;2.57;;;2.30;;
17424;SDS011;8830;50.978;5.058;2023-04-30T13:15:50;3.37;;;3.07;;
17424;SDS011;8830;50.978;5.058;2023-04-30T13:18:17;2.90;;;2.70;;
17424;SDS011;8830;50.978;5.058;2023-04-30T13:20:47;3.67;;;2.43;;
17424;SDS011;8830;50.978;5.058;2023-04-30T13:23:14;2.27;;;2.07;;
17424;SDS011;8830;50.978;5.058;2023-04-30T13:25:41;2.10;;;1.90;;
17424;SDS011;8830;50.978;5.058;2023-04-30T13:28:09;2.00;;;1.60;;
17424;SDS011;8830;50.978;5.058;2023-04-30T13:30:36;1.90;;;1.80;;
17424;SDS011;8830;50.978;5.058;2023-04-30T13:33:03;2.07;;;1.97;;
17424;SDS011;8830;50.978;5.058;2023-04-30T13:35:31;3.73;;;2.17;;
17424;SDS011;8830;50.978;5.058;2023-04-30T13:37:59;2.17;;;1.50;;
17424;SDS011;8830;50.978;5.058;2023-04-30T13:40:26;2.00;;;1.50;;
17424;SDS011;8830;50.978;5.058;2023-04-30T13:42:54;1.50;;;1.27;;
17424;SDS011;8830;50.978;5.058;2023-04-30T13:45:21;1.60;;;1.50;;
17424;SDS011;8830;50.978;5.058;2023-04-30T13:47:48;1.43;;;1.30;;
17424;SDS011;8830;50.978;5.058;2023-04-30T13:50:15;1.40;;;1.30;;
17424;SDS011;8830;50.978;5.058;2023-04-30T13:52:43;2.37;;;1.27;;
17424;SDS011;8830;50.978;5.058;2023-04-30T13:55:11;1.40;;;1.30;;
17424;SDS011;8830;50.978;5.058;2023-04-30T13:57:39;1.67;;;1.27;;
17424;SDS011;8830;50.978;5.058;2023-04-30T14:00:07;1.73;;;1.10;;
17424;SDS011;8830;50.978;5.058;2023-04-30T14:02:35;1.07;;;1.00;;
17424;SDS011;8830;50.978;5.058;2023-04-30T14:05:02;4.47;;;1.00;;
17424;SDS011;8830;50.978;5.058;2023-04-30T14:07:30;2.00;;;1.00;;
17424;SDS011;8830;50.978;5.058;2023-04-30T14:09:57;3.17;;;0.87;;
17424;SDS011;8830;50.978;5.058;2023-04-30T14:12:26;1.83;;;1.17;;
17424;SDS011;8830;50.978;5.058;2023-04-30T14:14:54;1.40;;;1.30;;
17424;SDS011;8830;50.978;5.058;2023-04-30T14:17:23;1.40;;;1.30;;
17424;SDS011;8830;50.978;5.058;2023-04-30T14:19:51;1.20;;;1.10;;
17424;SDS011;8830;50.978;5.058;2023-04-30T14:22:20;1.30;;;1.00;;
17424;SDS011;8830;50.978;5.058;2023-04-30T14:24:48;2.22;;;1.15;;
17424;SDS011;8830;50.978;5.058;2023-04-30T14:27:16;2.33;;;1.30;;
17424;SDS011;8830;50.978;5.058;2023-04-30T14:29:44;1.13;;;1.10;;
17424;SDS011;8830;50.978;5.058;2023-04-30T14:32:11;2.55;;;1.40;;
17424;SDS011;8830;50.978;5.058;2023-04-30T14:34:39;1.77;;;1.00;;
17424;SDS011;8830;50.978;5.058;2023-04-30T14:37:06;1.40;;;1.30;;
17424;SDS011;8830;50.978;5.058;2023-04-30T14:39:33;1.70;;;1.60;;
17424;SDS011;8830;50.978;5.058;2023-04-30T14:42:00;1.97;;;1.20;;
17424;SDS011;8830;50.978;5.058;2023-04-30T14:44:27;1.47;;;1.23;;
17424;SDS011;8830;50.978;5.058;2023-04-30T14:46:56;1.00;;;1.00;;
17424;SDS011;8830;50.978;5.058;2023-04-30T14:49:23;2.90;;;1.27;;
17424;SDS011;8830;50.978;5.058;2023-04-30T14:51:50;1.33;;;1.23;;
17424;SDS011;8830;50.978;5.058;2023-04-30T14:54:17;1.38;;;1.27;;
17424;SDS011;8830;50.978;5.058;2023-04-30T14:56:45;2.38;;;1.00;;
17424;SDS011;8830;50.978;5.058;2023-04-30T14:59:13;1.50;;;1.40;;
17424;SDS011;8830;50.978;5.058;2023-04-30T15:01:40;1.20;;;1.10;;
17424;SDS011;8830;50.978;5.058;2023-04-30T15:04:09;1.35;;;1.25;;
17424;SDS011;8830;50.978;5.058;2023-04-30T15:06:36;1.00;;;0.95;;
17424;SDS011;8830;50.978;5.058;2023-04-30T15:09:03;1.80;;;0.93;;
17424;SDS011;8830;50.978;5.058;2023-04-30T15:11:30;0.90;;;0.90;;
17424;SDS011;8830;50.978;5.058;2023-04-30T15:13:57;1.30;;;0.93;;
17424;SDS011;8830;50.978;5.058;2023-04-30T15:16:24;2.37;;;1.10;;
17424;SDS011;8830;50.978;5.058;2023-04-30T15:18:53;1.43;;;1.33;;
17424;SDS011;8830;50.978;5.058;2023-04-30T15:21:22;0.90;;;0.90;;
17424;SDS011;8830;50.978;5.058;2023-04-30T15:23:49;2.20;;;1.23;;
17424;SDS011;8830;50.978;5.058;2023-04-30T15:26:17;1.33;;;1.00;;
17424;SDS011;8830;50.978;5.058;2023-04-30T15:28:44;1.10;;;1.03;;
17424;SDS011;8830;50.978;5.058;2023-04-30T15:31:12;1.23;;;1.13;;
17424;SDS011;8830;50.978;5.058;2023-04-30T15:33:39;3.00;;;1.30;;